sensor_id;sensor_type;location;lat;lon;timestamp;P1;durP1;ratioP1;P2;durP2;ratioP2
16416;SDS011;8317;52.186;5.688;2022-11-21T00:01:17;43.90;;;24.50;;
16416;SDS011;8317;52.186;5.688;2022-11-21T00:03:45;41.03;;;23.53;;
16416;SDS011;8317;52.186;5.688;2022-11-21T00:06:13;40.50;;;23.83;;
16416;SDS011;8317;52.186;5.688;2022-11-21T00:08:40;41.17;;;22.50;;
16416;SDS011;8317;52.186;5.688;2022-11-21T00:11:07;41.70;;;22.63;;
16416;SDS011;8317;52.186;5.688;2022-11-21T00:13:34;42.03;;;23.80;;
16416;SDS011;8317;52.186;5.688;2022-11-21T00:16:03;42.90;;;23.40;;
16416;SDS011;8317;52.186;5.688;2022-11-21T00:18:31;45.23;;;24.03;;
16416;SDS011;8317;52.186;5.688;2022-11-21T00:21:02;43.93;;;24.20;;
16416;SDS011;8317;52.186;5.688;2022-11-21T00:23:30;43.67;;;24.83;;
16416;SDS011;8317;52.186;5.688;2022-11-21T00:25:56;43.33;;;24.67;;
16416;SDS011;8317;52.186;5.688;2022-11-21T00:28:23;47.23;;;24.33;;
16416;SDS011;8317;52.186;5.688;2022-11-21T00:30:50;45.17;;;23.60;;
16416;SDS011;8317;52.186;5.688;2022-11-21T00:33:18;47.63;;;23.77;;
16416;SDS011;8317;52.186;5.688;2022-11-21T00:35:45;44.60;;;23.93;;
16416;SDS011;8317;52.186;5.688;2022-11-21T00:38:12;42.90;;;23.63;;
16416;SDS011;8317;52.186;5.688;2022-11-21T00:40:39;47.00;;;24.23;;
16416;SDS011;8317;52.186;5.688;2022-11-21T00:43:08;45.90;;;24.43;;
16416;SDS011;8317;52.186;5.688;2022-11-21T00:45:34;51.63;;;26.40;;
16416;SDS011;8317;52.186;5.688;2022-11-21T00:48:01;46.47;;;25.20;;
16416;SDS011;8317;52.186;5.688;2022-11-21T00:50:30;47.17;;;26.00;;
16416;SDS011;8317;52.186;5.688;2022-11-21T00:52:57;50.03;;;25.53;;
16416;SDS011;8317;52.186;5.688;2022-11-21T00:55:24;45.67;;;24.87;;
16416;SDS011;8317;52.186;5.688;2022-11-21T00:57:51;44.67;;;23.53;;
16416;SDS011;8317;52.186;5.688;2022-11-21T01:00:18;42.93;;;23.83;;
16416;SDS011;8317;52.186;5.688;2022-11-21T01:02:45;49.37;;;25.40;;
16416;SDS011;8317;52.186;5.688;2022-11-21T01:05:11;41.93;;;23.40;;
16416;SDS011;8317;52.186;5.688;2022-11-21T01:07:40;45.87;;;24.67;;
16416;SDS011;8317;52.186;5.688;2022-11-21T01:10:07;48.17;;;23.70;;
16416;SDS011;8317;52.186;5.688;2022-11-21T01:12:34;46.93;;;24.00;;
16416;SDS011;8317;52.186;5.688;2022-11-21T01:15:00;41.57;;;22.60;;
16416;SDS011;8317;52.186;5.688;2022-11-21T01:17:27;50.73;;;24.73;;
16416;SDS011;8317;52.186;5.688;2022-11-21T01:19:57;44.97;;;23.47;;
16416;SDS011;8317;52.186;5.688;2022-11-21T01:22:24;46.97;;;24.10;;
16416;SDS011;8317;52.186;5.688;2022-11-21T01:24:52;44.47;;;23.33;;
16416;SDS011;8317;52.186;5.688;2022-11-21T01:27:19;41.57;;;21.77;;
16416;SDS011;8317;52.186;5.688;2022-11-21T01:29:46;47.20;;;24.47;;
16416;SDS011;8317;52.186;5.688;2022-11-21T01:32:13;47.27;;;22.83;;
16416;SDS011;8317;52.186;5.688;2022-11-21T01:34:40;43.37;;;24.10;;
16416;SDS011;8317;52.186;5.688;2022-11-21T01:37:06;45.07;;;22.03;;
16416;SDS011;8317;52.186;5.688;2022-11-21T01:39:33;46.77;;;24.43;;
16416;SDS011;8317;52.186;5.688;2022-11-21T01:42:02;44.83;;;24.27;;
16416;SDS011;8317;52.186;5.688;2022-11-21T01:44:44;48.87;;;24.00;;
16416;SDS011;8317;52.186;5.688;2022-11-21T01:47:13;44.83;;;23.90;;
16416;SDS011;8317;52.186;5.688;2022-11-21T01:49:39;44.60;;;24.00;;
16416;SDS011;8317;52.186;5.688;2022-11-21T01:52:09;46.60;;;23.90;;
16416;SDS011;8317;52.186;5.688;2022-11-21T01:54:39;46.73;;;23.70;;
16416;SDS011;8317;52.186;5.688;2022-11-21T01:57:10;49.33;;;22.80;;
16416;SDS011;8317;52.186;5.688;2022-11-21T01:59:44;45.00;;;23.03;;
16416;SDS011;8317;52.186;5.688;2022-11-21T02:02:16;47.57;;;23.37;;
16416;SDS011;8317;52.186;5.688;2022-11-21T02:04:46;43.77;;;23.50;;
16416;SDS011;8317;52.186;5.688;2022-11-21T02:07:15;45.33;;;22.57;;
16416;SDS011;8317;52.186;5.688;2022-11-21T02:09:45;45.83;;;22.53;;
16416;SDS011;8317;52.186;5.688;2022-11-21T02:12:22;42.57;;;22.03;;
16416;SDS011;8317;52.186;5.688;2022-11-21T02:14:51;45.90;;;23.13;;
16416;SDS011;8317;52.186;5.688;2022-11-21T02:17:19;45.37;;;22.63;;
16416;SDS011;8317;52.186;5.688;2022-11-21T02:19:48;41.57;;;21.23;;
16416;SDS011;8317;52.186;5.688;2022-11-21T02:22:20;45.03;;;22.33;;
16416;SDS011;8317;52.186;5.688;2022-11-21T02:24:59;43.83;;;22.83;;
16416;SDS011;8317;52.186;5.688;2022-11-21T02:27:28;46.70;;;21.50;;
16416;SDS011;8317;52.186;5.688;2022-11-21T02:29:56;46.67;;;22.27;;
16416;SDS011;8317;52.186;5.688;2022-11-21T02:32:24;47.20;;;22.93;;
16416;SDS011;8317;52.186;5.688;2022-11-21T02:34:57;44.47;;;22.80;;
16416;SDS011;8317;52.186;5.688;2022-11-21T02:37:24;44.53;;;22.10;;
16416;SDS011;8317;52.186;5.688;2022-11-21T02:39:51;40.67;;;20.27;;
16416;SDS011;8317;52.186;5.688;2022-11-21T02:42:22;46.73;;;22.43;;
16416;SDS011;8317;52.186;5.688;2022-11-21T02:44:55;47.43;;;23.57;;
16416;SDS011;8317;52.186;5.688;2022-11-21T02:47:27;51.53;;;23.37;;
16416;SDS011;8317;52.186;5.688;2022-11-21T02:49:55;42.90;;;21.63;;
16416;SDS011;8317;52.186;5.688;2022-11-21T02:52:27;45.53;;;23.07;;
16416;SDS011;8317;52.186;5.688;2022-11-21T02:54:54;44.90;;;22.23;;
16416;SDS011;8317;52.186;5.688;2022-11-21T02:57:22;43.33;;;21.90;;
16416;SDS011;8317;52.186;5.688;2022-11-21T02:59:49;45.17;;;21.90;;
16416;SDS011;8317;52.186;5.688;2022-11-21T03:02:16;44.93;;;21.83;;
16416;SDS011;8317;52.186;5.688;2022-11-21T03:04:43;44.03;;;21.47;;
16416;SDS011;8317;52.186;5.688;2022-11-21T03:07:10;47.17;;;20.87;;
16416;SDS011;8317;52.186;5.688;2022-11-21T03:09:37;43.10;;;21.87;;
16416;SDS011;8317;52.186;5.688;2022-11-21T03:12:04;47.93;;;21.27;;
16416;SDS011;8317;52.186;5.688;2022-11-21T03:14:33;44.63;;;21.67;;
16416;SDS011;8317;52.186;5.688;2022-11-21T03:17:00;47.40;;;22.43;;
16416;SDS011;8317;52.186;5.688;2022-11-21T03:19:28;44.93;;;22.30;;
16416;SDS011;8317;52.186;5.688;2022-11-21T03:21:55;48.20;;;23.03;;
16416;SDS011;8317;52.186;5.688;2022-11-21T03:24:22;49.57;;;23.37;;
16416;SDS011;8317;52.186;5.688;2022-11-21T03:26:49;46.23;;;22.70;;
16416;SDS011;8317;52.186;5.688;2022-11-21T03:29:16;48.83;;;24.30;;
16416;SDS011;8317;52.186;5.688;2022-11-21T03:31:44;46.50;;;22.83;;
16416;SDS011;8317;52.186;5.688;2022-11-21T03:34:11;45.70;;;21.90;;
16416;SDS011;8317;52.186;5.688;2022-11-21T03:36:37;45.83;;;21.63;;
16416;SDS011;8317;52.186;5.688;2022-11-21T03:39:04;48.80;;;23.50;;
16416;SDS011;8317;52.186;5.688;2022-11-21T03:41:31;47.40;;;22.47;;
16416;SDS011;8317;52.186;5.688;2022-11-21T03:43:59;50.17;;;21.83;;
16416;SDS011;8317;52.186;5.688;2022-11-21T03:46:28;47.73;;;22.30;;
16416;SDS011;8317;52.186;5.688;2022-11-21T03:48:57;47.97;;;23.07;;
16416;SDS011;8317;52.186;5.688;2022-11-21T03:51:24;51.67;;;23.20;;
16416;SDS011;8317;52.186;5.688;2022-11-21T03:53:51;52.33;;;22.43;;
16416;SDS011;8317;52.186;5.688;2022-11-21T03:56:19;47.43;;;21.90;;
16416;SDS011;8317;52.186;5.688;2022-11-21T03:58:46;48.73;;;22.50;;
16416;SDS011;8317;52.186;5.688;2022-11-21T04:01:13;48.97;;;23.10;;
16416;SDS011;8317;52.186;5.688;2022-11-21T04:03:40;52.90;;;22.87;;
16416;SDS011;8317;52.186;5.688;2022-11-21T04:06:09;52.73;;;23.40;;
16416;SDS011;8317;52.186;5.688;2022-11-21T04:08:37;59.07;;;23.93;;
16416;SDS011;8317;52.186;5.688;2022-11-21T04:11:05;52.40;;;24.17;;
16416;SDS011;8317;52.186;5.688;2022-11-21T04:13:32;58.57;;;23.77;;
16416;SDS011;8317;52.186;5.688;2022-11-21T04:15:59;63.43;;;23.77;;
16416;SDS011;8317;52.186;5.688;2022-11-21T04:18:26;58.80;;;24.00;;
16416;SDS011;8317;52.186;5.688;2022-11-21T04:20:54;56.27;;;23.63;;
16416;SDS011;8317;52.186;5.688;2022-11-21T04:23:23;59.13;;;23.73;;
16416;SDS011;8317;52.186;5.688;2022-11-21T04:25:51;58.77;;;23.80;;
16416;SDS011;8317;52.186;5.688;2022-11-21T04:28:18;59.27;;;24.20;;
16416;SDS011;8317;52.186;5.688;2022-11-21T04:30:45;64.47;;;26.17;;
16416;SDS011;8317;52.186;5.688;2022-11-21T04:33:13;63.23;;;26.07;;
16416;SDS011;8317;52.186;5.688;2022-11-21T04:35:41;67.20;;;27.13;;
16416;SDS011;8317;52.186;5.688;2022-11-21T04:38:08;71.80;;;26.20;;
16416;SDS011;8317;52.186;5.688;2022-11-21T04:40:36;65.37;;;25.73;;
16416;SDS011;8317;52.186;5.688;2022-11-21T04:43:03;67.03;;;27.37;;
16416;SDS011;8317;52.186;5.688;2022-11-21T04:45:31;65.00;;;26.13;;
16416;SDS011;8317;52.186;5.688;2022-11-21T04:47:58;64.40;;;25.60;;
16416;SDS011;8317;52.186;5.688;2022-11-21T04:50:24;68.97;;;25.57;;
16416;SDS011;8317;52.186;5.688;2022-11-21T04:52:52;65.40;;;26.10;;
16416;SDS011;8317;52.186;5.688;2022-11-21T04:55:20;62.33;;;25.60;;
16416;SDS011;8317;52.186;5.688;2022-11-21T04:57:49;61.43;;;25.57;;
16416;SDS011;8317;52.186;5.688;2022-11-21T05:00:17;66.90;;;25.63;;
16416;SDS011;8317;52.186;5.688;2022-11-21T05:02:44;71.37;;;25.70;;
16416;SDS011;8317;52.186;5.688;2022-11-21T05:05:11;68.80;;;25.70;;
16416;SDS011;8317;52.186;5.688;2022-11-21T05:07:38;66.13;;;26.33;;
16416;SDS011;8317;52.186;5.688;2022-11-21T05:10:05;72.90;;;26.97;;
16416;SDS011;8317;52.186;5.688;2022-11-21T05:12:32;67.53;;;26.43;;
16416;SDS011;8317;52.186;5.688;2022-11-21T05:15:18;66.13;;;26.13;;
16416;SDS011;8317;52.186;5.688;2022-11-21T05:17:46;69.43;;;26.97;;
16416;SDS011;8317;52.186;5.688;2022-11-21T05:20:12;76.23;;;27.27;;
16416;SDS011;8317;52.186;5.688;2022-11-21T05:22:40;85.07;;;28.77;;
16416;SDS011;8317;52.186;5.688;2022-11-21T05:25:07;69.00;;;27.47;;
16416;SDS011;8317;52.186;5.688;2022-11-21T05:27:34;65.50;;;26.70;;
16416;SDS011;8317;52.186;5.688;2022-11-21T05:30:01;70.67;;;26.10;;
16416;SDS011;8317;52.186;5.688;2022-11-21T05:32:29;76.37;;;27.20;;
16416;SDS011;8317;52.186;5.688;2022-11-21T05:34:56;70.33;;;26.87;;
16416;SDS011;8317;52.186;5.688;2022-11-21T05:37:23;69.40;;;26.80;;
16416;SDS011;8317;52.186;5.688;2022-11-21T05:39:50;72.83;;;25.63;;
16416;SDS011;8317;52.186;5.688;2022-11-21T05:42:16;76.27;;;25.57;;
16416;SDS011;8317;52.186;5.688;2022-11-21T05:45:05;77.57;;;24.63;;
16416;SDS011;8317;52.186;5.688;2022-11-21T05:47:33;76.23;;;24.37;;
16416;SDS011;8317;52.186;5.688;2022-11-21T05:50:00;74.77;;;24.90;;
16416;SDS011;8317;52.186;5.688;2022-11-21T05:52:27;88.30;;;25.07;;
16416;SDS011;8317;52.186;5.688;2022-11-21T05:54:53;79.27;;;24.83;;
16416;SDS011;8317;52.186;5.688;2022-11-21T05:57:20;80.97;;;23.57;;
16416;SDS011;8317;52.186;5.688;2022-11-21T05:59:47;83.43;;;25.73;;
16416;SDS011;8317;52.186;5.688;2022-11-21T06:02:14;84.53;;;25.17;;
16416;SDS011;8317;52.186;5.688;2022-11-21T06:05:00;69.33;;;24.30;;
16416;SDS011;8317;52.186;5.688;2022-11-21T06:07:26;98.50;;;24.37;;
16416;SDS011;8317;52.186;5.688;2022-11-21T06:09:53;93.97;;;25.10;;
16416;SDS011;8317;52.186;5.688;2022-11-21T06:12:20;118.77;;;26.83;;
16416;SDS011;8317;52.186;5.688;2022-11-21T06:14:47;103.60;;;26.57;;
16416;SDS011;8317;52.186;5.688;2022-11-21T06:17:14;74.37;;;22.83;;
16416;SDS011;8317;52.186;5.688;2022-11-21T06:19:41;97.80;;;27.40;;
16416;SDS011;8317;52.186;5.688;2022-11-21T06:22:09;90.00;;;25.93;;
16416;SDS011;8317;52.186;5.688;2022-11-21T06:24:36;85.33;;;24.67;;
16416;SDS011;8317;52.186;5.688;2022-11-21T06:27:03;88.63;;;25.87;;
16416;SDS011;8317;52.186;5.688;2022-11-21T06:29:29;126.93;;;27.43;;
16416;SDS011;8317;52.186;5.688;2022-11-21T06:31:56;109.00;;;27.77;;
16416;SDS011;8317;52.186;5.688;2022-11-21T06:34:24;84.57;;;25.63;;
16416;SDS011;8317;52.186;5.688;2022-11-21T06:36:51;93.33;;;26.43;;
16416;SDS011;8317;52.186;5.688;2022-11-21T06:39:19;92.43;;;28.30;;
16416;SDS011;8317;52.186;5.688;2022-11-21T06:41:46;93.13;;;28.03;;
16416;SDS011;8317;52.186;5.688;2022-11-21T06:44:15;105.37;;;28.77;;
16416;SDS011;8317;52.186;5.688;2022-11-21T06:46:42;97.17;;;30.03;;
16416;SDS011;8317;52.186;5.688;2022-11-21T06:49:09;117.87;;;29.77;;
16416;SDS011;8317;52.186;5.688;2022-11-21T06:51:36;121.87;;;29.20;;
16416;SDS011;8317;52.186;5.688;2022-11-21T06:54:03;142.03;;;31.13;;
16416;SDS011;8317;52.186;5.688;2022-11-21T06:56:31;162.37;;;29.93;;
16416;SDS011;8317;52.186;5.688;2022-11-21T06:58:58;86.70;;;28.27;;
16416;SDS011;8317;52.186;5.688;2022-11-21T07:01:25;97.90;;;28.00;;
16416;SDS011;8317;52.186;5.688;2022-11-21T07:03:52;89.47;;;29.20;;
16416;SDS011;8317;52.186;5.688;2022-11-21T07:06:19;93.97;;;28.90;;
16416;SDS011;8317;52.186;5.688;2022-11-21T07:08:46;134.13;;;30.90;;
16416;SDS011;8317;52.186;5.688;2022-11-21T07:11:13;114.13;;;30.87;;
16416;SDS011;8317;52.186;5.688;2022-11-21T07:13:42;102.10;;;30.37;;
16416;SDS011;8317;52.186;5.688;2022-11-21T07:16:09;97.03;;;29.13;;
16416;SDS011;8317;52.186;5.688;2022-11-21T07:18:38;89.10;;;29.87;;
16416;SDS011;8317;52.186;5.688;2022-11-21T07:21:05;114.93;;;29.63;;
16416;SDS011;8317;52.186;5.688;2022-11-21T07:23:33;89.67;;;29.53;;
16416;SDS011;8317;52.186;5.688;2022-11-21T07:26:00;109.57;;;29.30;;
16416;SDS011;8317;52.186;5.688;2022-11-21T07:28:29;93.40;;;29.43;;
16416;SDS011;8317;52.186;5.688;2022-11-21T07:30:58;85.10;;;28.17;;
16416;SDS011;8317;52.186;5.688;2022-11-21T07:33:27;88.63;;;28.50;;
16416;SDS011;8317;52.186;5.688;2022-11-21T07:35:54;97.87;;;29.33;;
16416;SDS011;8317;52.186;5.688;2022-11-21T07:38:22;96.40;;;31.53;;
16416;SDS011;8317;52.186;5.688;2022-11-21T07:40:49;86.40;;;28.10;;
16416;SDS011;8317;52.186;5.688;2022-11-21T07:43:16;79.93;;;28.60;;
16416;SDS011;8317;52.186;5.688;2022-11-21T07:45:43;93.33;;;27.50;;
16416;SDS011;8317;52.186;5.688;2022-11-21T07:48:11;84.53;;;28.37;;
16416;SDS011;8317;52.186;5.688;2022-11-21T07:50:38;90.30;;;30.97;;
16416;SDS011;8317;52.186;5.688;2022-11-21T07:53:06;86.13;;;29.87;;
16416;SDS011;8317;52.186;5.688;2022-11-21T07:55:36;100.10;;;30.40;;
16416;SDS011;8317;52.186;5.688;2022-11-21T07:58:03;96.87;;;34.30;;
16416;SDS011;8317;52.186;5.688;2022-11-21T08:00:32;108.50;;;35.70;;
16416;SDS011;8317;52.186;5.688;2022-11-21T08:03:00;97.20;;;31.33;;
16416;SDS011;8317;52.186;5.688;2022-11-21T08:05:30;115.77;;;40.07;;
16416;SDS011;8317;52.186;5.688;2022-11-21T08:07:57;112.70;;;36.33;;
16416;SDS011;8317;52.186;5.688;2022-11-21T08:10:23;110.53;;;36.80;;
16416;SDS011;8317;52.186;5.688;2022-11-21T08:12:50;97.20;;;34.30;;
16416;SDS011;8317;52.186;5.688;2022-11-21T08:15:17;83.00;;;29.37;;
16416;SDS011;8317;52.186;5.688;2022-11-21T08:17:44;91.23;;;29.83;;
16416;SDS011;8317;52.186;5.688;2022-11-21T08:20:11;78.83;;;27.47;;
16416;SDS011;8317;52.186;5.688;2022-11-21T08:22:39;88.63;;;28.80;;
16416;SDS011;8317;52.186;5.688;2022-11-21T08:25:07;88.87;;;26.33;;
16416;SDS011;8317;52.186;5.688;2022-11-21T08:27:35;81.70;;;27.37;;
16416;SDS011;8317;52.186;5.688;2022-11-21T08:30:02;93.90;;;30.77;;
16416;SDS011;8317;52.186;5.688;2022-11-21T08:32:30;89.13;;;28.97;;
16416;SDS011;8317;52.186;5.688;2022-11-21T08:34:58;93.80;;;30.27;;
16416;SDS011;8317;52.186;5.688;2022-11-21T08:37:25;93.07;;;28.07;;
16416;SDS011;8317;52.186;5.688;2022-11-21T08:39:54;84.83;;;30.03;;
16416;SDS011;8317;52.186;5.688;2022-11-21T08:42:23;81.23;;;28.97;;
16416;SDS011;8317;52.186;5.688;2022-11-21T08:44:49;90.17;;;35.83;;
16416;SDS011;8317;52.186;5.688;2022-11-21T08:47:16;76.93;;;29.33;;
16416;SDS011;8317;52.186;5.688;2022-11-21T08:49:44;83.50;;;28.53;;
16416;SDS011;8317;52.186;5.688;2022-11-21T08:52:11;77.67;;;26.63;;
16416;SDS011;8317;52.186;5.688;2022-11-21T08:54:39;83.03;;;28.80;;
16416;SDS011;8317;52.186;5.688;2022-11-21T08:57:07;88.13;;;30.73;;
16416;SDS011;8317;52.186;5.688;2022-11-21T08:59:34;94.80;;;32.53;;
16416;SDS011;8317;52.186;5.688;2022-11-21T09:02:01;89.20;;;32.03;;
16416;SDS011;8317;52.186;5.688;2022-11-21T09:04:28;85.27;;;32.03;;
16416;SDS011;8317;52.186;5.688;2022-11-21T09:06:55;63.30;;;26.10;;
16416;SDS011;8317;52.186;5.688;2022-11-21T09:09:21;59.33;;;24.73;;
16416;SDS011;8317;52.186;5.688;2022-11-21T09:11:48;64.07;;;26.73;;
16416;SDS011;8317;52.186;5.688;2022-11-21T09:14:17;58.93;;;23.23;;
16416;SDS011;8317;52.186;5.688;2022-11-21T09:17:01;49.97;;;21.07;;
16416;SDS011;8317;52.186;5.688;2022-11-21T09:19:45;56.40;;;21.93;;
16416;SDS011;8317;52.186;5.688;2022-11-21T09:22:12;53.47;;;23.53;;
16416;SDS011;8317;52.186;5.688;2022-11-21T09:24:39;67.33;;;27.27;;
16416;SDS011;8317;52.186;5.688;2022-11-21T09:27:05;69.77;;;27.60;;
16416;SDS011;8317;52.186;5.688;2022-11-21T09:29:34;66.50;;;27.33;;
16416;SDS011;8317;52.186;5.688;2022-11-21T09:32:01;65.17;;;29.53;;
16416;SDS011;8317;52.186;5.688;2022-11-21T09:34:28;55.97;;;22.83;;
16416;SDS011;8317;52.186;5.688;2022-11-21T09:36:55;64.03;;;23.67;;
16416;SDS011;8317;52.186;5.688;2022-11-21T09:39:22;70.07;;;22.37;;
16416;SDS011;8317;52.186;5.688;2022-11-21T09:41:52;57.93;;;21.93;;
16416;SDS011;8317;52.186;5.688;2022-11-21T09:44:38;58.67;;;22.33;;
16416;SDS011;8317;52.186;5.688;2022-11-21T09:47:16;65.53;;;23.13;;
16416;SDS011;8317;52.186;5.688;2022-11-21T09:49:48;63.43;;;21.70;;
16416;SDS011;8317;52.186;5.688;2022-11-21T09:52:21;68.63;;;25.33;;
16416;SDS011;8317;52.186;5.688;2022-11-21T09:54:53;78.93;;;26.90;;
16416;SDS011;8317;52.186;5.688;2022-11-21T09:57:24;84.83;;;27.70;;
16416;SDS011;8317;52.186;5.688;2022-11-21T09:59:53;66.30;;;25.77;;
16416;SDS011;8317;52.186;5.688;2022-11-21T10:02:21;82.03;;;27.83;;
16416;SDS011;8317;52.186;5.688;2022-11-21T10:04:49;71.53;;;27.93;;
16416;SDS011;8317;52.186;5.688;2022-11-21T10:07:19;65.60;;;24.20;;
16416;SDS011;8317;52.186;5.688;2022-11-21T10:09:55;70.70;;;25.07;;
16416;SDS011;8317;52.186;5.688;2022-11-21T10:12:32;68.00;;;24.53;;
16416;SDS011;8317;52.186;5.688;2022-11-21T10:15:18;82.23;;;26.47;;
16416;SDS011;8317;52.186;5.688;2022-11-21T10:20:52;99.97;;;31.50;;
16416;SDS011;8317;52.186;5.688;2022-11-21T10:23:31;79.53;;;29.53;;
16416;SDS011;8317;52.186;5.688;2022-11-21T10:26:20;69.77;;;27.03;;
16416;SDS011;8317;52.186;5.688;2022-11-21T10:28:54;82.53;;;27.20;;
16416;SDS011;8317;52.186;5.688;2022-11-21T10:31:27;68.33;;;25.90;;
16416;SDS011;8317;52.186;5.688;2022-11-21T10:33:56;80.33;;;27.93;;
16416;SDS011;8317;52.186;5.688;2022-11-21T10:36:25;75.60;;;26.13;;
16416;SDS011;8317;52.186;5.688;2022-11-21T10:38:56;68.80;;;26.13;;
16416;SDS011;8317;52.186;5.688;2022-11-21T10:41:29;76.00;;;26.90;;
16416;SDS011;8317;52.186;5.688;2022-11-21T10:44:08;82.17;;;27.67;;
16416;SDS011;8317;52.186;5.688;2022-11-21T10:47:01;78.10;;;27.13;;
16416;SDS011;8317;52.186;5.688;2022-11-21T10:49:37;75.40;;;26.50;;
16416;SDS011;8317;52.186;5.688;2022-11-21T10:52:06;82.77;;;27.63;;
16416;SDS011;8317;52.186;5.688;2022-11-21T10:57:36;74.87;;;27.37;;
16416;SDS011;8317;52.186;5.688;2022-11-21T11:00:14;86.23;;;28.03;;
16416;SDS011;8317;52.186;5.688;2022-11-21T11:03:01;81.17;;;27.40;;
16416;SDS011;8317;52.186;5.688;2022-11-21T11:05:32;70.30;;;26.10;;
16416;SDS011;8317;52.186;5.688;2022-11-21T11:08:02;91.13;;;29.00;;
16416;SDS011;8317;52.186;5.688;2022-11-21T11:10:34;86.63;;;28.37;;
16416;SDS011;8317;52.186;5.688;2022-11-21T11:13:02;83.27;;;26.60;;
16416;SDS011;8317;52.186;5.688;2022-11-21T11:16:01;79.27;;;27.67;;
16416;SDS011;8317;52.186;5.688;2022-11-21T11:18:32;80.80;;;27.53;;
16416;SDS011;8317;52.186;5.688;2022-11-21T11:21:10;86.20;;;28.30;;
16416;SDS011;8317;52.186;5.688;2022-11-21T11:23:39;89.23;;;29.17;;
16416;SDS011;8317;52.186;5.688;2022-11-21T11:26:16;92.40;;;30.30;;
16416;SDS011;8317;52.186;5.688;2022-11-21T11:28:49;89.57;;;30.83;;
16416;SDS011;8317;52.186;5.688;2022-11-21T11:31:16;96.87;;;29.37;;
16416;SDS011;8317;52.186;5.688;2022-11-21T11:33:52;92.73;;;28.50;;
16416;SDS011;8317;52.186;5.688;2022-11-21T11:36:30;85.40;;;28.93;;
16416;SDS011;8317;52.186;5.688;2022-11-21T11:39:11;94.57;;;28.67;;
16416;SDS011;8317;52.186;5.688;2022-11-21T11:41:58;98.53;;;31.73;;
16416;SDS011;8317;52.186;5.688;2022-11-21T11:45:22;90.60;;;29.93;;
16416;SDS011;8317;52.186;5.688;2022-11-21T11:48:30;92.93;;;30.03;;
16416;SDS011;8317;52.186;5.688;2022-11-21T11:51:02;94.63;;;31.17;;
16416;SDS011;8317;52.186;5.688;2022-11-21T11:53:36;98.63;;;32.40;;
16416;SDS011;8317;52.186;5.688;2022-11-21T11:56:07;106.07;;;33.57;;
16416;SDS011;8317;52.186;5.688;2022-11-21T11:58:41;102.17;;;35.07;;
16416;SDS011;8317;52.186;5.688;2022-11-21T12:01:14;100.50;;;35.30;;
16416;SDS011;8317;52.186;5.688;2022-11-21T12:03:45;104.63;;;35.20;;
16416;SDS011;8317;52.186;5.688;2022-11-21T12:06:20;109.07;;;36.50;;
16416;SDS011;8317;52.186;5.688;2022-11-21T12:08:51;96.60;;;33.33;;
16416;SDS011;8317;52.186;5.688;2022-11-21T12:11:22;91.63;;;31.87;;
16416;SDS011;8317;52.186;5.688;2022-11-21T12:14:13;98.50;;;31.83;;
16416;SDS011;8317;52.186;5.688;2022-11-21T12:17:02;107.33;;;32.43;;
16416;SDS011;8317;52.186;5.688;2022-11-21T12:19:32;97.00;;;33.30;;
16416;SDS011;8317;52.186;5.688;2022-11-21T12:22:03;88.80;;;31.87;;
16416;SDS011;8317;52.186;5.688;2022-11-21T12:24:32;92.57;;;32.17;;
16416;SDS011;8317;52.186;5.688;2022-11-21T12:27:01;96.43;;;33.23;;
16416;SDS011;8317;52.186;5.688;2022-11-21T12:29:37;98.60;;;33.80;;
16416;SDS011;8317;52.186;5.688;2022-11-21T12:32:23;91.63;;;33.67;;
16416;SDS011;8317;52.186;5.688;2022-11-21T12:35:03;86.63;;;29.77;;
16416;SDS011;8317;52.186;5.688;2022-11-21T12:37:45;88.03;;;32.60;;
16416;SDS011;8317;52.186;5.688;2022-11-21T12:40:21;95.87;;;32.30;;
16416;SDS011;8317;52.186;5.688;2022-11-21T12:42:59;88.43;;;30.87;;
16416;SDS011;8317;52.186;5.688;2022-11-21T12:45:36;89.63;;;32.17;;
16416;SDS011;8317;52.186;5.688;2022-11-21T12:51:37;84.57;;;32.03;;
16416;SDS011;8317;52.186;5.688;2022-11-21T12:57:38;82.60;;;31.60;;
16416;SDS011;8317;52.186;5.688;2022-11-21T13:00:17;81.20;;;32.47;;
16416;SDS011;8317;52.186;5.688;2022-11-21T13:05:59;73.67;;;30.17;;
16416;SDS011;8317;52.186;5.688;2022-11-21T13:08:29;74.43;;;30.23;;
16416;SDS011;8317;52.186;5.688;2022-11-21T13:11:02;74.83;;;30.50;;
16416;SDS011;8317;52.186;5.688;2022-11-21T13:13:58;75.73;;;30.50;;
16416;SDS011;8317;52.186;5.688;2022-11-21T13:16:29;85.53;;;34.63;;
16416;SDS011;8317;52.186;5.688;2022-11-21T13:19:03;86.77;;;35.80;;
16416;SDS011;8317;52.186;5.688;2022-11-21T13:21:41;90.17;;;33.87;;
16416;SDS011;8317;52.186;5.688;2022-11-21T13:24:09;74.77;;;31.03;;
16416;SDS011;8317;52.186;5.688;2022-11-21T13:26:46;67.77;;;28.67;;
16416;SDS011;8317;52.186;5.688;2022-11-21T13:29:19;71.33;;;28.73;;
16416;SDS011;8317;52.186;5.688;2022-11-21T13:31:46;66.83;;;29.47;;
16416;SDS011;8317;52.186;5.688;2022-11-21T13:34:33;63.93;;;28.30;;
16416;SDS011;8317;52.186;5.688;2022-11-21T13:37:02;65.13;;;27.57;;
16416;SDS011;8317;52.186;5.688;2022-11-21T13:39:31;61.60;;;27.13;;
16416;SDS011;8317;52.186;5.688;2022-11-21T13:42:11;68.00;;;29.77;;
16416;SDS011;8317;52.186;5.688;2022-11-21T13:45:35;59.20;;;27.10;;
16416;SDS011;8317;52.186;5.688;2022-11-21T13:48:20;70.77;;;33.10;;
16416;SDS011;8317;52.186;5.688;2022-11-21T13:51:06;70.73;;;35.33;;
16416;SDS011;8317;52.186;5.688;2022-11-21T13:57:01;59.47;;;28.80;;
16416;SDS011;8317;52.186;5.688;2022-11-21T13:59:38;54.45;;;25.20;;
16416;SDS011;8317;52.186;5.688;2022-11-21T14:02:21;59.03;;;28.27;;
16416;SDS011;8317;52.186;5.688;2022-11-21T14:05:13;55.67;;;27.40;;
16416;SDS011;8317;52.186;5.688;2022-11-21T14:08:10;47.20;;;24.33;;
16416;SDS011;8317;52.186;5.688;2022-11-21T14:10:39;57.70;;;26.37;;
16416;SDS011;8317;52.186;5.688;2022-11-21T14:13:13;64.40;;;29.77;;
16416;SDS011;8317;52.186;5.688;2022-11-21T14:15:50;60.93;;;31.03;;
16416;SDS011;8317;52.186;5.688;2022-11-21T14:18:29;60.00;;;27.70;;
16416;SDS011;8317;52.186;5.688;2022-11-21T14:20:58;46.33;;;24.77;;
16416;SDS011;8317;52.186;5.688;2022-11-21T14:23:26;47.23;;;24.83;;
16416;SDS011;8317;52.186;5.688;2022-11-21T14:25:55;53.17;;;25.17;;
16416;SDS011;8317;52.186;5.688;2022-11-21T14:28:26;55.97;;;24.37;;
16416;SDS011;8317;52.186;5.688;2022-11-21T14:30:54;54.45;;;26.20;;
16416;SDS011;8317;52.186;5.688;2022-11-21T14:33:23;46.83;;;24.43;;
16416;SDS011;8317;52.186;5.688;2022-11-21T14:35:58;56.27;;;24.23;;
16416;SDS011;8317;52.186;5.688;2022-11-21T14:38:27;50.03;;;25.47;;
16416;SDS011;8317;52.186;5.688;2022-11-21T14:44:00;55.53;;;25.00;;
16416;SDS011;8317;52.186;5.688;2022-11-21T14:46:32;56.13;;;24.17;;
16416;SDS011;8317;52.186;5.688;2022-11-21T14:51:49;51.65;;;26.17;;
16416;SDS011;8317;52.186;5.688;2022-11-21T14:54:18;43.13;;;22.70;;
16416;SDS011;8317;52.186;5.688;2022-11-21T14:56:47;44.60;;;23.93;;
16416;SDS011;8317;52.186;5.688;2022-11-21T14:59:19;45.13;;;23.77;;
16416;SDS011;8317;52.186;5.688;2022-11-21T15:01:59;52.60;;;24.57;;
16416;SDS011;8317;52.186;5.688;2022-11-21T15:04:31;41.77;;;23.27;;
16416;SDS011;8317;52.186;5.688;2022-11-21T15:06:59;49.63;;;24.50;;
16416;SDS011;8317;52.186;5.688;2022-11-21T15:09:26;49.63;;;25.00;;
16416;SDS011;8317;52.186;5.688;2022-11-21T15:11:55;50.97;;;23.77;;
16416;SDS011;8317;52.186;5.688;2022-11-21T15:14:27;43.67;;;24.40;;
16416;SDS011;8317;52.186;5.688;2022-11-21T15:16:58;45.30;;;24.03;;
16416;SDS011;8317;52.186;5.688;2022-11-21T15:19:28;46.37;;;24.57;;